Yuma, Tennessee
Current Conditions -  °F | °C
As of 4:35 AM on Monday 26 Jan 2015 (Local Time) from KPVE Reporting Station
Overcast Overcast  
Wind Chill: 26°   Ceiling: 1600
Heat Index: 34°   Visibility: 10mi
Dew Point: 30°   Wind: 9mph
Humidity: 87%   Direction: 320°NW
Pressure: 29.95"   Gusts: NA
Location:  35.85°N, 88.34°W
Report Text: KPVE 261035Z AUTO 32008KT 10SM OVC016 01/M01 A2995 RMK
Loading
Personal Weather Stations






























Interactive Weather Map New forecast layout! Learn more

10-Day Weather Forecast

Advertisements
Track Severe Weather on mobile